Terminal Aerodrome Forecast
Issued by NWS Sioux Falls, SD

Home | Current Version | Previous Version | Text Only | Print | Product List | Glossary On
Versions: 1 2 3 4 5 6 7 8 9 10 11 12 13 14 15 16 17 18 19
000
FTUS43 KFSD 242320
TAFFSD
TAF
KFSD 242320Z 2500/2524 18011KT P6SM SCT060 BKN120
     FM250400 20008KT P6SM SCT080
     FM250800 26007KT P6SM FEW250
     FM251500 28014G25KT P6SM BKN025
     FM251900 30018G29KT P6SM OVC035=

USA.gov is the U.S. government's official web portal to all federal, state and local government web resources and services.